sensor_id;sensor_type;location;lat;lon;timestamp;pressure;altitude;pressure_sealevel;temperature;humidity
38022;BME280;23832;43.216;27.946;2023-04-28T00:01:09;100940.56;;;14.26;45.15
38022;BME280;23832;43.216;27.946;2023-04-28T00:03:13;100940.44;;;14.55;44.66
38022;BME280;23832;43.216;27.946;2023-04-28T00:05:15;100943.97;;;14.19;45.10
38022;BME280;23832;43.216;27.946;2023-04-28T00:07:17;100944.09;;;14.54;44.78
38022;BME280;23832;43.216;27.946;2023-04-28T00:09:19;100946.56;;;14.77;44.41
38022;BME280;23832;43.216;27.946;2023-04-28T00:11:21;100947.06;;;14.44;44.96
38022;BME280;23832;43.216;27.946;2023-04-28T00:13:23;100956.09;;;14.71;44.55
38022;BME280;23832;43.216;27.946;2023-04-28T00:15:25;100953.97;;;14.60;44.67
38022;BME280;23832;43.216;27.946;2023-04-28T00:17:27;100967.09;;;14.68;44.64
38022;BME280;23832;43.216;27.946;2023-04-28T00:19:30;100958.31;;;14.46;45.02
38022;BME280;23832;43.216;27.946;2023-04-28T00:21:33;100960.72;;;14.63;44.85
38022;BME280;23832;43.216;27.946;2023-04-28T00:23:35;100958.53;;;14.66;44.79
38022;BME280;23832;43.216;27.946;2023-04-28T00:25:37;100955.59;;;14.61;44.96
38022;BME280;23832;43.216;27.946;2023-04-28T00:27:39;100952.88;;;14.76;44.93
38022;BME280;23832;43.216;27.946;2023-04-28T00:29:41;100955.94;;;14.80;44.96
38022;BME280;23832;43.216;27.946;2023-04-28T00:31:43;100955.44;;;14.27;45.67
38022;BME280;23832;43.216;27.946;2023-04-28T00:33:46;100965.19;;;14.41;45.44
38022;BME280;23832;43.216;27.946;2023-04-28T00:35:53;100958.16;;;14.48;45.52
38022;BME280;23832;43.216;27.946;2023-04-28T00:37:59;100966.84;;;14.63;45.20
38022;BME280;23832;43.216;27.946;2023-04-28T00:40:01;100971.75;;;14.24;45.92
38022;BME280;23832;43.216;27.946;2023-04-28T00:42:03;100976.56;;;14.35;45.60
38022;BME280;23832;43.216;27.946;2023-04-28T00:44:04;100980.91;;;14.21;46.38
38022;BME280;23832;43.216;27.946;2023-04-28T00:46:07;100980.56;;;14.45;45.64
38022;BME280;23832;43.216;27.946;2023-04-28T00:48:09;100986.31;;;14.70;45.04
38022;BME280;23832;43.216;27.946;2023-04-28T00:50:11;100987.19;;;14.77;44.66
38022;BME280;23832;43.216;27.946;2023-04-28T00:52:14;100980.91;;;14.42;45.57
38022;BME280;23832;43.216;27.946;2023-04-28T00:54:16;100981.94;;;14.41;45.58
38022;BME280;23832;43.216;27.946;2023-04-28T00:56:18;100977.53;;;14.48;45.73
38022;BME280;23832;43.216;27.946;2023-04-28T00:58:22;100975.41;;;14.44;45.74
38022;BME280;23832;43.216;27.946;2023-04-28T01:00:24;100977.53;;;14.70;45.19
38022;BME280;23832;43.216;27.946;2023-04-28T01:02:27;100979.84;;;14.80;44.71
38022;BME280;23832;43.216;27.946;2023-04-28T01:04:32;100971.75;;;14.88;44.60
38022;BME280;23832;43.216;27.946;2023-04-28T01:06:34;100971.13;;;14.86;44.73
38022;BME280;23832;43.216;27.946;2023-04-28T01:08:38;100973.53;;;14.81;44.98
38022;BME280;23832;43.216;27.946;2023-04-28T01:10:42;100975.84;;;14.90;44.53
38022;BME280;23832;43.216;27.946;2023-04-28T01:12:44;100971.44;;;14.76;44.96
38022;BME280;23832;43.216;27.946;2023-04-28T01:14:46;100970.44;;;14.56;45.14
38022;BME280;23832;43.216;27.946;2023-04-28T01:16:47;100970.38;;;14.70;44.97
38022;BME280;23832;43.216;27.946;2023-04-28T01:18:50;100976.63;;;14.84;44.91
38022;BME280;23832;43.216;27.946;2023-04-28T01:20:52;100983.13;;;14.39;45.42
38022;BME280;23832;43.216;27.946;2023-04-28T01:22:54;100974.91;;;14.34;45.56
38022;BME280;23832;43.216;27.946;2023-04-28T01:24:57;100984.81;;;14.25;45.58
38022;BME280;23832;43.216;27.946;2023-04-28T01:26:59;100980.63;;;13.95;45.98
38022;BME280;23832;43.216;27.946;2023-04-28T01:29:02;100980.09;;;14.20;45.62
38022;BME280;23832;43.216;27.946;2023-04-28T01:31:03;100983.81;;;14.26;45.59
38022;BME280;23832;43.216;27.946;2023-04-28T01:33:05;100967.97;;;14.54;44.72
38022;BME280;23832;43.216;27.946;2023-04-28T01:35:07;100979.91;;;14.43;44.75
38022;BME280;23832;43.216;27.946;2023-04-28T01:37:09;100971.09;;;14.00;45.54
38022;BME280;23832;43.216;27.946;2023-04-28T01:39:11;100975.53;;;14.14;45.21
38022;BME280;23832;43.216;27.946;2023-04-28T01:41:16;100969.81;;;13.96;45.37
38022;BME280;23832;43.216;27.946;2023-04-28T01:43:18;100970.88;;;14.02;45.40
38022;BME280;23832;43.216;27.946;2023-04-28T01:45:20;100977.78;;;13.81;45.66
38022;BME280;23832;43.216;27.946;2023-04-28T01:47:22;100980.09;;;13.84;45.62
38022;BME280;23832;43.216;27.946;2023-04-28T01:49:23;100970.16;;;14.08;45.07
38022;BME280;23832;43.216;27.946;2023-04-28T01:51:26;100970.84;;;13.95;45.17
38022;BME280;23832;43.216;27.946;2023-04-28T01:53:27;100982.03;;;13.76;45.43
38022;BME280;23832;43.216;27.946;2023-04-28T01:55:30;100977.31;;;13.92;45.16
38022;BME280;23832;43.216;27.946;2023-04-28T01:57:33;100978.00;;;14.16;44.77
38022;BME280;23832;43.216;27.946;2023-04-28T01:59:35;100974.25;;;14.10;44.77
38022;BME280;23832;43.216;27.946;2023-04-28T02:01:37;100974.25;;;14.10;44.73
38022;BME280;23832;43.216;27.946;2023-04-28T02:03:39;100973.59;;;14.23;44.46
38022;BME280;23832;43.216;27.946;2023-04-28T02:05:41;100974.44;;;14.45;44.12
38022;BME280;23832;43.216;27.946;2023-04-28T02:07:43;100980.00;;;14.50;43.84
38022;BME280;23832;43.216;27.946;2023-04-28T02:09:45;100977.69;;;14.26;44.40
38022;BME280;23832;43.216;27.946;2023-04-28T02:11:47;100981.66;;;14.15;44.41
38022;BME280;23832;43.216;27.946;2023-04-28T02:13:50;100983.06;;;14.32;43.97
38022;BME280;23832;43.216;27.946;2023-04-28T02:15:52;100983.09;;;13.96;44.34
38022;BME280;23832;43.216;27.946;2023-04-28T02:17:54;100982.03;;;14.12;43.75
38022;BME280;23832;43.216;27.946;2023-04-28T02:19:56;100983.59;;;14.06;43.87
38022;BME280;23832;43.216;27.946;2023-04-28T02:21:58;100982.59;;;14.07;43.88
38022;BME280;23832;43.216;27.946;2023-04-28T02:24:00;100981.63;;;13.94;44.04
38022;BME280;23832;43.216;27.946;2023-04-28T02:26:02;100971.59;;;14.10;44.04
38022;BME280;23832;43.216;27.946;2023-04-28T02:28:06;100981.03;;;14.13;44.25
38022;BME280;23832;43.216;27.946;2023-04-28T02:30:10;100984.63;;;14.05;44.38
38022;BME280;23832;43.216;27.946;2023-04-28T02:32:12;100971.75;;;14.02;44.43
38022;BME280;23832;43.216;27.946;2023-04-28T02:34:14;100979.41;;;13.97;44.37
38022;BME280;23832;43.216;27.946;2023-04-28T02:36:16;100990.53;;;14.07;44.14
38022;BME280;23832;43.216;27.946;2023-04-28T02:38:18;100985.97;;;14.01;43.94
38022;BME280;23832;43.216;27.946;2023-04-28T02:40:20;100991.75;;;13.90;43.98
38022;BME280;23832;43.216;27.946;2023-04-28T02:42:22;101000.94;;;13.73;44.28
38022;BME280;23832;43.216;27.946;2023-04-28T02:44:23;100999.00;;;13.81;44.33
38022;BME280;23832;43.216;27.946;2023-04-28T02:46:27;100999.75;;;13.75;44.15
38022;BME280;23832;43.216;27.946;2023-04-28T02:48:29;101007.31;;;13.78;44.07
38022;BME280;23832;43.216;27.946;2023-04-28T02:50:31;101003.47;;;13.81;43.97
38022;BME280;23832;43.216;27.946;2023-04-28T02:52:33;101007.78;;;13.82;43.78
38022;BME280;23832;43.216;27.946;2023-04-28T02:54:35;101008.00;;;14.02;43.53
38022;BME280;23832;43.216;27.946;2023-04-28T02:56:36;101007.72;;;13.75;43.96
38022;BME280;23832;43.216;27.946;2023-04-28T02:58:40;101014.41;;;13.19;45.30
38022;BME280;23832;43.216;27.946;2023-04-28T03:00:42;101011.34;;;13.45;45.15
38022;BME280;23832;43.216;27.946;2023-04-28T03:02:45;101023.50;;;13.69;45.39
38022;BME280;23832;43.216;27.946;2023-04-28T03:04:47;101009.78;;;13.80;48.13
38022;BME280;23832;43.216;27.946;2023-04-28T03:06:49;101023.66;;;13.97;47.18
38022;BME280;23832;43.216;27.946;2023-04-28T03:08:51;101034.34;;;14.03;46.29
38022;BME280;23832;43.216;27.946;2023-04-28T03:10:52;101076.09;;;14.01;45.77
38022;BME280;23832;43.216;27.946;2023-04-28T03:12:54;101044.88;;;13.82;46.23
38022;BME280;23832;43.216;27.946;2023-04-28T03:14:56;101039.31;;;13.62;46.67
38022;BME280;23832;43.216;27.946;2023-04-28T03:16:58;101047.63;;;13.74;46.47
38022;BME280;23832;43.216;27.946;2023-04-28T03:19:01;101041.22;;;13.53;46.89
38022;BME280;23832;43.216;27.946;2023-04-28T03:21:03;101047.44;;;13.46;46.87
38022;BME280;23832;43.216;27.946;2023-04-28T03:23:05;101048.16;;;13.54;46.92
38022;BME280;23832;43.216;27.946;2023-04-28T03:25:07;101066.06;;;13.52;47.21
38022;BME280;23832;43.216;27.946;2023-04-28T03:27:09;101054.75;;;13.58;47.25
38022;BME280;23832;43.216;27.946;2023-04-28T03:29:11;101061.31;;;13.62;46.98
38022;BME280;23832;43.216;27.946;2023-04-28T03:31:12;101057.38;;;13.73;46.74
38022;BME280;23832;43.216;27.946;2023-04-28T03:33:14;101059.22;;;13.87;46.44
38022;BME280;23832;43.216;27.946;2023-04-28T03:35:17;101060.59;;;13.69;47.13
38022;BME280;23832;43.216;27.946;2023-04-28T03:37:19;101063.41;;;13.82;46.91
38022;BME280;23832;43.216;27.946;2023-04-28T03:39:22;101066.31;;;14.02;47.19
38022;BME280;23832;43.216;27.946;2023-04-28T03:41:23;101064.97;;;14.06;46.98
38022;BME280;23832;43.216;27.946;2023-04-28T03:43:25;101067.91;;;13.96;47.37
38022;BME280;23832;43.216;27.946;2023-04-28T03:45:27;101074.78;;;14.27;46.38
38022;BME280;23832;43.216;27.946;2023-04-28T03:47:28;101065.31;;;14.17;46.69
38022;BME280;23832;43.216;27.946;2023-04-28T03:49:30;101079.47;;;14.25;46.27
38022;BME280;23832;43.216;27.946;2023-04-28T03:51:33;101084.16;;;14.23;46.24
38022;BME280;23832;43.216;27.946;2023-04-28T03:53:35;101081.19;;;14.32;45.69
38022;BME280;23832;43.216;27.946;2023-04-28T03:55:37;101078.84;;;14.23;45.86
38022;BME280;23832;43.216;27.946;2023-04-28T03:57:39;101084.25;;;14.00;46.19
38022;BME280;23832;43.216;27.946;2023-04-28T03:59:40;101079.56;;;14.16;46.32
38022;BME280;23832;43.216;27.946;2023-04-28T04:01:42;101076.44;;;14.28;45.97
38022;BME280;23832;43.216;27.946;2023-04-28T04:03:44;101085.69;;;14.32;45.78
38022;BME280;23832;43.216;27.946;2023-04-28T04:05:46;101091.63;;;14.34;45.79
38022;BME280;23832;43.216;27.946;2023-04-28T04:07:49;101087.94;;;14.35;46.14
38022;BME280;23832;43.216;27.946;2023-04-28T04:09:51;101090.63;;;14.71;45.50
38022;BME280;23832;43.216;27.946;2023-04-28T04:11:53;101094.59;;;14.82;45.32
38022;BME280;23832;43.216;27.946;2023-04-28T04:13:55;101093.09;;;14.94;45.39
38022;BME280;23832;43.216;27.946;2023-04-28T04:15:57;101088.53;;;15.09;45.36
38022;BME280;23832;43.216;27.946;2023-04-28T04:17:59;101099.00;;;15.17;45.52
38022;BME280;23832;43.216;27.946;2023-04-28T04:20:01;101097.84;;;15.26;45.25
38022;BME280;23832;43.216;27.946;2023-04-28T04:22:03;101100.16;;;15.29;45.67
38022;BME280;23832;43.216;27.946;2023-04-28T04:24:06;101099.41;;;15.64;44.98
38022;BME280;23832;43.216;27.946;2023-04-28T04:26:08;101101.28;;;15.70;44.79
38022;BME280;23832;43.216;27.946;2023-04-28T04:28:10;101097.25;;;15.80;44.80
38022;BME280;23832;43.216;27.946;2023-04-28T04:30:12;101095.53;;;16.01;44.07
38022;BME280;23832;43.216;27.946;2023-04-28T04:32:19;101103.88;;;15.98;44.17
38022;BME280;23832;43.216;27.946;2023-04-28T04:34:20;101102.25;;;15.97;43.98
38022;BME280;23832;43.216;27.946;2023-04-28T04:36:22;101098.06;;;16.22;43.51
38022;BME280;23832;43.216;27.946;2023-04-28T04:38:24;101092.41;;;16.38;42.59
38022;BME280;23832;43.216;27.946;2023-04-28T04:40:27;101099.81;;;16.50;42.12
38022;BME280;23832;43.216;27.946;2023-04-28T04:42:29;101094.06;;;16.53;41.84
38022;BME280;23832;43.216;27.946;2023-04-28T04:44:31;101095.91;;;16.52;41.61
38022;BME280;23832;43.216;27.946;2023-04-28T04:46:33;101088.03;;;16.72;41.10
38022;BME280;23832;43.216;27.946;2023-04-28T04:48:35;101091.31;;;16.94;39.95
38022;BME280;23832;43.216;27.946;2023-04-28T04:50:37;101097.06;;;17.11;39.52
38022;BME280;23832;43.216;27.946;2023-04-28T04:52:39;101087.22;;;17.24;38.96
38022;BME280;23832;43.216;27.946;2023-04-28T04:54:40;101089.91;;;17.05;38.65
38022;BME280;23832;43.216;27.946;2023-04-28T04:56:44;101086.81;;;17.41;38.31
38022;BME280;23832;43.216;27.946;2023-04-28T04:58:45;101089.88;;;17.51;39.48
38022;BME280;23832;43.216;27.946;2023-04-28T05:00:47;101089.91;;;17.44;39.65
38022;BME280;23832;43.216;27.946;2023-04-28T05:02:52;101097.47;;;17.74;38.94
38022;BME280;23832;43.216;27.946;2023-04-28T05:04:53;101087.38;;;17.89;38.60
38022;BME280;23832;43.216;27.946;2023-04-28T05:06:55;101094.84;;;18.19;38.19
38022;BME280;23832;43.216;27.946;2023-04-28T05:09:00;101092.75;;;18.34;37.97
38022;BME280;23832;43.216;27.946;2023-04-28T05:11:02;101098.50;;;18.31;37.97
38022;BME280;23832;43.216;27.946;2023-04-28T05:13:05;101104.03;;;18.36;37.69
38022;BME280;23832;43.216;27.946;2023-04-28T05:15:08;101091.88;;;18.40;36.98
38022;BME280;23832;43.216;27.946;2023-04-28T05:17:10;101090.69;;;18.36;37.05
38022;BME280;23832;43.216;27.946;2023-04-28T05:19:12;101091.84;;;18.85;36.10
38022;BME280;23832;43.216;27.946;2023-04-28T05:21:13;101103.00;;;18.75;36.32
38022;BME280;23832;43.216;27.946;2023-04-28T05:23:15;101100.97;;;19.02;35.54
38022;BME280;23832;43.216;27.946;2023-04-28T05:25:17;101098.56;;;18.94;35.79
38022;BME280;23832;43.216;27.946;2023-04-28T05:27:19;101104.78;;;19.38;35.74
38022;BME280;23832;43.216;27.946;2023-04-28T05:29:22;101094.50;;;19.41;35.58
38022;BME280;23832;43.216;27.946;2023-04-28T05:31:25;101105.69;;;19.93;34.07
38022;BME280;23832;43.216;27.946;2023-04-28T05:33:27;101099.25;;;20.01;34.52
38022;BME280;23832;43.216;27.946;2023-04-28T05:35:30;101098.06;;;19.97;34.79
38022;BME280;23832;43.216;27.946;2023-04-28T05:37:32;101104.56;;;20.19;34.12
38022;BME280;23832;43.216;27.946;2023-04-28T05:39:34;101106.22;;;20.02;34.05
38022;BME280;23832;43.216;27.946;2023-04-28T05:41:36;101097.91;;;20.10;34.02
38022;BME280;23832;43.216;27.946;2023-04-28T05:43:39;101094.97;;;20.30;33.49
38022;BME280;23832;43.216;27.946;2023-04-28T05:45:42;101101.81;;;20.44;33.44
38022;BME280;23832;43.216;27.946;2023-04-28T05:47:44;101103.22;;;20.47;33.23
38022;BME280;23832;43.216;27.946;2023-04-28T05:49:46;101097.81;;;20.65;32.90
38022;BME280;23832;43.216;27.946;2023-04-28T05:51:48;101105.94;;;20.88;33.44
38022;BME280;23832;43.216;27.946;2023-04-28T05:53:50;101111.94;;;20.72;33.38
38022;BME280;23832;43.216;27.946;2023-04-28T05:55:52;101097.56;;;20.96;33.20
38022;BME280;23832;43.216;27.946;2023-04-28T05:57:54;101111.28;;;21.42;32.74
38022;BME280;23832;43.216;27.946;2023-04-28T05:59:55;101106.03;;;21.35;33.01
38022;BME280;23832;43.216;27.946;2023-04-28T06:01:58;101097.88;;;21.30;33.28
38022;BME280;23832;43.216;27.946;2023-04-28T06:04:00;101100.78;;;21.40;32.71
38022;BME280;23832;43.216;27.946;2023-04-28T06:06:02;101092.97;;;21.50;32.91
38022;BME280;23832;43.216;27.946;2023-04-28T06:08:03;101108.09;;;22.03;31.51
38022;BME280;23832;43.216;27.946;2023-04-28T06:10:07;101100.03;;;22.03;31.42
38022;BME280;23832;43.216;27.946;2023-04-28T06:12:09;101100.19;;;21.85;31.41
38022;BME280;23832;43.216;27.946;2023-04-28T06:14:10;101101.72;;;21.69;31.78
38022;BME280;23832;43.216;27.946;2023-04-28T06:16:12;101110.66;;;21.98;31.15
38022;BME280;23832;43.216;27.946;2023-04-28T06:18:16;101112.69;;;22.31;30.84
38022;BME280;23832;43.216;27.946;2023-04-28T06:20:18;101101.16;;;22.31;30.87
38022;BME280;23832;43.216;27.946;2023-04-28T06:22:19;101109.38;;;22.70;30.15
38022;BME280;23832;43.216;27.946;2023-04-28T06:24:21;101105.41;;;22.44;30.69
38022;BME280;23832;43.216;27.946;2023-04-28T06:26:23;101111.69;;;22.49;31.13
38022;BME280;23832;43.216;27.946;2023-04-28T06:28:24;101107.41;;;22.93;32.33
38022;BME280;23832;43.216;27.946;2023-04-28T06:30:26;101103.00;;;23.55;30.93
38022;BME280;23832;43.216;27.946;2023-04-28T06:32:28;101103.97;;;23.65;30.48
38022;BME280;23832;43.216;27.946;2023-04-28T06:34:31;101112.41;;;23.91;29.89
38022;BME280;23832;43.216;27.946;2023-04-28T06:36:33;101105.13;;;24.13;29.19
38022;BME280;23832;43.216;27.946;2023-04-28T06:38:35;101104.31;;;24.13;28.70
38022;BME280;23832;43.216;27.946;2023-04-28T06:40:37;101110.31;;;24.20;29.10
38022;BME280;23832;43.216;27.946;2023-04-28T06:42:39;101106.09;;;24.51;27.81
38022;BME280;23832;43.216;27.946;2023-04-28T06:44:42;101112.09;;;24.58;28.18
38022;BME280;23832;43.216;27.946;2023-04-28T06:46:44;101103.56;;;24.39;27.78
38022;BME280;23832;43.216;27.946;2023-04-28T06:48:46;101100.19;;;25.08;27.68
38022;BME280;23832;43.216;27.946;2023-04-28T06:50:49;101101.38;;;25.22;27.35
38022;BME280;23832;43.216;27.946;2023-04-28T06:52:51;101104.38;;;25.26;27.91
38022;BME280;23832;43.216;27.946;2023-04-28T06:54:53;101110.66;;;25.04;30.01
38022;BME280;23832;43.216;27.946;2023-04-28T06:56:55;101113.53;;;25.67;31.26
38022;BME280;23832;43.216;27.946;2023-04-28T06:58:57;101116.50;;;25.65;30.03
38022;BME280;23832;43.216;27.946;2023-04-28T07:00:59;101103.69;;;25.93;29.27
38022;BME280;23832;43.216;27.946;2023-04-28T07:03:02;101125.47;;;26.34;35.88
38022;BME280;23832;43.216;27.946;2023-04-28T07:05:05;101108.00;;;26.82;33.24
38022;BME280;23832;43.216;27.946;2023-04-28T07:07:11;101106.66;;;27.40;30.94
38022;BME280;23832;43.216;27.946;2023-04-28T07:09:13;101100.16;;;27.41;28.66
38022;BME280;23832;43.216;27.946;2023-04-28T07:11:17;101097.72;;;27.30;29.35
38022;BME280;23832;43.216;27.946;2023-04-28T07:13:19;101100.41;;;27.55;28.79
38022;BME280;23832;43.216;27.946;2023-04-28T07:15:23;101106.88;;;27.80;28.12
38022;BME280;23832;43.216;27.946;2023-04-28T07:17:25;101095.53;;;27.52;28.08
38022;BME280;23832;43.216;27.946;2023-04-28T07:19:29;101100.38;;;27.65;27.40
38022;BME280;23832;43.216;27.946;2023-04-28T07:21:31;101096.03;;;27.64;26.02
38022;BME280;23832;43.216;27.946;2023-04-28T07:23:35;101098.59;;;28.15;24.70
38022;BME280;23832;43.216;27.946;2023-04-28T07:25:37;101095.31;;;27.18;25.13
38022;BME280;23832;43.216;27.946;2023-04-28T07:27:40;101100.44;;;27.50;23.95
38022;BME280;23832;43.216;27.946;2023-04-28T07:29:42;101097.13;;;27.79;24.18
38022;BME280;23832;43.216;27.946;2023-04-28T07:31:44;101098.78;;;27.69;24.37
38022;BME280;23832;43.216;27.946;2023-04-28T07:33:45;101098.22;;;27.62;24.00
38022;BME280;23832;43.216;27.946;2023-04-28T07:35:47;101099.22;;;27.97;23.74
38022;BME280;23832;43.216;27.946;2023-04-28T07:37:51;101101.53;;;27.29;24.49
38022;BME280;23832;43.216;27.946;2023-04-28T07:39:55;101109.66;;;27.03;25.03
38022;BME280;23832;43.216;27.946;2023-04-28T07:41:57;101094.69;;;27.67;24.32
38022;BME280;23832;43.216;27.946;2023-04-28T07:43:59;101092.75;;;27.88;24.17
38022;BME280;23832;43.216;27.946;2023-04-28T07:46:01;101102.91;;;28.11;24.06
38022;BME280;23832;43.216;27.946;2023-04-28T07:48:03;101097.03;;;28.04;24.00
38022;BME280;23832;43.216;27.946;2023-04-28T07:50:05;101081.56;;;28.05;23.55
38022;BME280;23832;43.216;27.946;2023-04-28T07:52:07;101087.41;;;27.52;23.43
38022;BME280;23832;43.216;27.946;2023-04-28T07:54:10;101092.84;;;28.66;22.63
38022;BME280;23832;43.216;27.946;2023-04-28T07:56:14;101091.38;;;28.50;22.95
38022;BME280;23832;43.216;27.946;2023-04-28T07:58:15;101077.84;;;29.42;22.24
38022;BME280;23832;43.216;27.946;2023-04-28T08:00:23;101090.84;;;29.93;22.15
38022;BME280;23832;43.216;27.946;2023-04-28T08:02:25;101079.59;;;30.23;21.32
38022;BME280;23832;43.216;27.946;2023-04-28T08:04:27;101084.31;;;29.94;21.41
38022;BME280;23832;43.216;27.946;2023-04-28T08:06:30;101083.56;;;29.88;21.96
38022;BME280;23832;43.216;27.946;2023-04-28T08:08:32;101084.78;;;29.77;22.07
38022;BME280;23832;43.216;27.946;2023-04-28T08:10:34;101072.31;;;30.38;21.21
38022;BME280;23832;43.216;27.946;2023-04-28T08:12:39;101071.94;;;29.83;20.84
38022;BME280;23832;43.216;27.946;2023-04-28T08:14:41;101058.09;;;30.03;20.66
38022;BME280;23832;43.216;27.946;2023-04-28T08:16:43;101078.84;;;30.74;20.43
38022;BME280;23832;43.216;27.946;2023-04-28T08:18:45;101071.50;;;30.75;20.32
38022;BME280;23832;43.216;27.946;2023-04-28T08:20:47;101069.72;;;30.46;20.36
38022;BME280;23832;43.216;27.946;2023-04-28T08:22:49;101049.78;;;31.02;20.42
38022;BME280;23832;43.216;27.946;2023-04-28T08:24:51;101061.97;;;31.38;20.02
38022;BME280;23832;43.216;27.946;2023-04-28T08:26:52;101058.78;;;31.99;20.15
38022;BME280;23832;43.216;27.946;2023-04-28T08:28:59;101060.34;;;32.28;19.78
38022;BME280;23832;43.216;27.946;2023-04-28T08:31:01;101066.84;;;32.54;19.16
38022;BME280;23832;43.216;27.946;2023-04-28T08:33:04;101057.00;;;31.81;19.11
38022;BME280;23832;43.216;27.946;2023-04-28T08:35:06;101059.97;;;32.20;18.93
38022;BME280;23832;43.216;27.946;2023-04-28T08:37:08;101045.91;;;31.91;19.25
38022;BME280;23832;43.216;27.946;2023-04-28T08:39:11;101045.28;;;31.94;18.99
38022;BME280;23832;43.216;27.946;2023-04-28T08:41:14;101045.91;;;31.91;19.12
38022;BME280;23832;43.216;27.946;2023-04-28T08:43:15;101042.66;;;31.61;19.10
38022;BME280;23832;43.216;27.946;2023-04-28T08:45:21;101049.66;;;30.42;19.82
38022;BME280;23832;43.216;27.946;2023-04-28T08:47:25;101037.50;;;30.53;20.04
38022;BME280;23832;43.216;27.946;2023-04-28T08:49:30;101046.28;;;31.71;19.56
38022;BME280;23832;43.216;27.946;2023-04-28T08:51:34;101031.97;;;31.51;19.33
38022;BME280;23832;43.216;27.946;2023-04-28T08:53:37;101038.03;;;32.70;18.81
38022;BME280;23832;43.216;27.946;2023-04-28T08:55:39;101035.34;;;32.12;19.04
38022;BME280;23832;43.216;27.946;2023-04-28T08:57:42;101022.84;;;32.33;18.44
38022;BME280;23832;43.216;27.946;2023-04-28T08:59:43;101024.13;;;31.63;18.24
38022;BME280;23832;43.216;27.946;2023-04-28T09:01:48;101021.94;;;31.05;18.83
38022;BME280;23832;43.216;27.946;2023-04-28T09:03:50;101033.84;;;32.64;18.36
38022;BME280;23832;43.216;27.946;2023-04-28T09:05:56;101030.22;;;32.78;18.31
38022;BME280;23832;43.216;27.946;2023-04-28T09:07:59;101011.97;;;33.18;17.64
38022;BME280;23832;43.216;27.946;2023-04-28T09:10:14;101011.00;;;31.66;17.83
38022;BME280;23832;43.216;27.946;2023-04-28T09:12:16;101019.47;;;31.78;17.94
38022;BME280;23832;43.216;27.946;2023-04-28T09:14:18;101027.13;;;32.70;17.91
38022;BME280;23832;43.216;27.946;2023-04-28T09:16:20;101029.47;;;33.48;17.39
38022;BME280;23832;43.216;27.946;2023-04-28T09:18:24;101028.28;;;34.06;17.56
38022;BME280;23832;43.216;27.946;2023-04-28T09:20:27;101022.72;;;33.54;18.01
38022;BME280;23832;43.216;27.946;2023-04-28T09:22:29;101021.19;;;34.05;16.56
38022;BME280;23832;43.216;27.946;2023-04-28T09:24:33;101027.13;;;34.67;16.87
38022;BME280;23832;43.216;27.946;2023-04-28T09:26:47;101016.69;;;34.69;16.71
38022;BME280;23832;43.216;27.946;2023-04-28T09:28:50;101007.63;;;35.24;16.46
38022;BME280;23832;43.216;27.946;2023-04-28T09:30:56;101009.84;;;35.90;16.19
38022;BME280;23832;43.216;27.946;2023-04-28T09:33:03;101007.06;;;35.69;15.93
38022;BME280;23832;43.216;27.946;2023-04-28T09:35:06;101009.88;;;36.02;16.08
38022;BME280;23832;43.216;27.946;2023-04-28T09:37:13;101008.34;;;34.14;16.66
38022;BME280;23832;43.216;27.946;2023-04-28T09:39:26;101004.03;;;33.39;16.75
38022;BME280;23832;43.216;27.946;2023-04-28T09:41:35;101002.59;;;34.97;15.91
38022;BME280;23832;43.216;27.946;2023-04-28T09:43:37;101006.97;;;34.89;15.89
38022;BME280;23832;43.216;27.946;2023-04-28T09:45:39;101005.00;;;34.98;16.55
38022;BME280;23832;43.216;27.946;2023-04-28T09:47:42;100998.38;;;34.18;16.58
38022;BME280;23832;43.216;27.946;2023-04-28T09:49:52;100992.06;;;33.17;17.19
38022;BME280;23832;43.216;27.946;2023-04-28T09:51:57;100994.28;;;32.31;16.99
38022;BME280;23832;43.216;27.946;2023-04-28T09:54:12;101006.72;;;33.30;16.89
38022;BME280;23832;43.216;27.946;2023-04-28T09:56:14;101011.94;;;33.09;16.25
38022;BME280;23832;43.216;27.946;2023-04-28T09:58:20;100999.13;;;33.75;16.16
38022;BME280;23832;43.216;27.946;2023-04-28T10:00:22;100999.31;;;34.39;16.53
38022;BME280;23832;43.216;27.946;2023-04-28T10:02:25;100992.69;;;34.58;16.02
38022;BME280;23832;43.216;27.946;2023-04-28T10:04:27;100980.72;;;33.41;17.05
38022;BME280;23832;43.216;27.946;2023-04-28T10:06:37;100985.84;;;30.86;18.37
38022;BME280;23832;43.216;27.946;2023-04-28T10:08:40;100982.19;;;32.76;17.21
38022;BME280;23832;43.216;27.946;2023-04-28T10:10:42;100986.72;;;33.69;17.23
38022;BME280;23832;43.216;27.946;2023-04-28T10:12:44;100981.88;;;33.49;16.94
38022;BME280;23832;43.216;27.946;2023-04-28T10:14:47;100992.53;;;33.19;16.85
38022;BME280;23832;43.216;27.946;2023-04-28T10:16:49;100998.03;;;33.94;16.57
38022;BME280;23832;43.216;27.946;2023-04-28T10:18:54;100989.69;;;33.99;16.93
38022;BME280;23832;43.216;27.946;2023-04-28T10:20:57;100989.94;;;34.58;16.03
38022;BME280;23832;43.216;27.946;2023-04-28T10:23:05;100990.50;;;34.98;16.40
38022;BME280;23832;43.216;27.946;2023-04-28T10:25:26;100989.94;;;35.72;15.91
38022;BME280;23832;43.216;27.946;2023-04-28T10:27:29;100996.63;;;35.63;15.96
38022;BME280;23832;43.216;27.946;2023-04-28T10:29:31;100994.03;;;32.05;17.69
38022;BME280;23832;43.216;27.946;2023-04-28T10:31:33;100991.50;;;30.01;18.70
38022;BME280;23832;43.216;27.946;2023-04-28T10:33:36;100983.03;;;31.19;17.74